createdAt,value
2023-04-11T00:00:55.657Z,53.82
2023-04-11T00:01:55.766Z,57.04
2023-04-11T00:02:55.732Z,50.27
2023-04-11T00:03:55.785Z,49.47
2023-04-11T00:04:55.632Z,53.50
2023-04-11T00:05:56.987Z,63.49
2023-04-11T00:06:55.670Z,58.33
2023-04-11T00:07:55.549Z,56.88
2023-04-11T00:08:55.727Z,57.85
2023-04-11T00:09:55.589Z,61.71
2023-04-11T00:10:55.596Z,48.98
2023-04-11T00:11:55.514Z,56.56
2023-04-11T00:12:55.508Z,57.04
2023-04-11T00:13:55.480Z,55.27
2023-04-11T00:14:55.447Z,51.40
2023-04-11T00:15:55.696Z,50.11
2023-04-11T00:16:55.488Z,50.76
2023-04-11T00:17:55.825Z,48.02
2023-04-11T00:18:55.648Z,48.18
2023-04-11T00:19:55.558Z,49.95
2023-04-11T00:20:55.464Z,57.36
2023-04-11T00:21:55.571Z,58.17
2023-04-11T00:22:55.725Z,55.91
2023-04-11T00:23:55.487Z,53.82
2023-04-11T00:24:55.498Z,51.56
2023-04-11T00:25:55.449Z,53.33
2023-04-11T00:26:55.490Z,58.49
2023-04-11T00:27:55.481Z,58.33
2023-04-11T00:28:55.635Z,50.27
2023-04-11T00:29:55.406Z,59.94
2023-04-11T00:30:55.456Z,51.08
2023-04-11T00:31:55.555Z,49.47
2023-04-11T00:32:55.738Z,59.62
2023-04-11T00:33:55.325Z,56.07
2023-04-11T00:34:55.378Z,51.56
2023-04-11T00:35:55.462Z,61.07
2023-04-11T00:36:55.407Z,54.95
2023-04-11T00:37:55.435Z,59.94
2023-04-11T00:38:55.804Z,57.69
2023-04-11T00:39:55.426Z,60.26
2023-04-11T00:40:55.434Z,55.59
2023-04-11T00:41:55.349Z,55.75
2023-04-11T00:42:55.432Z,62.36
2023-04-11T00:43:55.531Z,61.23
2023-04-11T00:44:55.260Z,61.55
2023-04-11T00:45:55.349Z,56.24
2023-04-11T00:46:55.289Z,57.04
2023-04-11T00:47:55.311Z,63.00
2023-04-11T00:48:55.593Z,61.71
2023-04-11T00:49:55.279Z,65.42
2023-04-11T00:50:55.874Z,62.68
2023-04-11T00:51:55.242Z,63.49
2023-04-11T00:52:55.603Z,62.20
2023-04-11T00:53:55.164Z,60.10
2023-04-11T00:54:55.134Z,63.33
2023-04-11T00:55:55.104Z,58.49
2023-04-11T00:56:55.350Z,64.45
2023-04-11T00:57:55.212Z,57.04
2023-04-11T00:58:55.330Z,55.59
2023-04-11T00:59:55.135Z,61.71
2023-04-11T01:00:55.289Z,59.62
2023-04-11T01:01:55.314Z,65.58
2023-04-11T01:02:55.381Z,58.65
2023-04-11T01:03:55.338Z,59.30
2023-04-11T01:04:55.148Z,62.84
2023-04-11T01:05:55.176Z,60.42
2023-04-11T01:06:55.207Z,62.84
2023-04-11T01:07:55.474Z,61.39
2023-04-11T01:08:55.296Z,55.43
2023-04-11T01:09:55.146Z,56.88
2023-04-11T01:10:55.096Z,53.82
2023-04-11T01:11:55.091Z,59.94
2023-04-11T01:12:55.031Z,62.84
2023-04-11T01:13:55.072Z,62.04
2023-04-11T01:14:54.968Z,57.04
2023-04-11T01:15:55.049Z,62.52
2023-04-11T01:16:55.089Z,57.04
2023-04-11T01:17:54.955Z,63.00
2023-04-11T01:18:55.194Z,60.91
2023-04-11T01:19:54.971Z,62.84
2023-04-11T01:20:54.983Z,61.23
2023-04-11T01:21:55.081Z,54.46
2023-04-11T01:22:55.007Z,59.78
2023-04-11T01:23:55.177Z,56.56
2023-04-11T01:24:55.262Z,58.17
2023-04-11T01:25:54.986Z,54.79
2023-04-11T01:26:54.999Z,62.52
2023-04-11T01:27:54.978Z,61.55
2023-04-11T01:28:55.208Z,62.84
2023-04-11T01:29:54.997Z,59.62
2023-04-11T01:30:55.039Z,55.43
2023-04-11T01:31:54.912Z,57.20
2023-04-11T01:32:54.981Z,60.91
2023-04-11T01:33:54.892Z,56.72
2023-04-11T01:34:54.921Z,59.78
2023-04-11T01:35:54.924Z,61.23
2023-04-11T01:36:54.848Z,62.84
2023-04-11T01:37:54.842Z,50.92
2023-04-11T01:38:55.170Z,58.81
2023-04-11T01:39:54.803Z,58.01
2023-04-11T01:40:55.798Z,63.33
2023-04-11T01:41:54.792Z,56.40
2023-04-11T01:42:54.907Z,50.92
2023-04-11T01:43:54.861Z,61.55
2023-04-11T01:44:54.984Z,57.85
2023-04-11T01:45:54.958Z,59.78
2023-04-11T01:46:54.848Z,59.94
2023-04-11T01:47:55.031Z,61.71
2023-04-11T01:48:55.161Z,60.91
2023-04-11T01:49:54.834Z,59.14
2023-04-11T01:50:56.196Z,54.62
2023-04-11T01:51:55.727Z,53.50
2023-04-11T01:52:55.122Z,55.43
2023-04-11T01:53:54.800Z,61.39
2023-04-11T01:54:54.774Z,61.55
2023-04-11T01:55:56.676Z,57.36
2023-04-11T01:56:54.686Z,52.69
2023-04-11T01:57:54.684Z,54.30
2023-04-11T01:58:54.888Z,58.33
2023-04-11T01:59:54.711Z,53.98
2023-04-11T02:00:54.757Z,50.27
2023-04-11T02:01:54.938Z,58.01
2023-04-11T02:02:54.879Z,58.97
2023-04-11T02:03:55.093Z,53.17
2023-04-11T02:04:54.720Z,53.98
2023-04-11T02:05:54.793Z,59.46
2023-04-11T02:06:54.768Z,53.17
2023-04-11T02:07:55.814Z,53.98
2023-04-11T02:08:54.916Z,55.27
2023-04-11T02:09:54.708Z,60.10
2023-04-11T02:10:54.679Z,58.97
2023-04-11T02:11:54.649Z,58.33
2023-04-11T02:12:54.693Z,57.69
2023-04-11T02:13:54.715Z,57.52
2023-04-11T02:14:54.951Z,55.11
2023-04-11T02:15:54.737Z,60.26
2023-04-11T02:16:54.556Z,55.43
2023-04-11T02:17:54.659Z,60.91
2023-04-11T02:18:55.010Z,59.78
2023-04-11T02:19:54.597Z,59.94
2023-04-11T02:20:54.558Z,61.39
2023-04-11T02:21:54.554Z,56.07
2023-04-11T02:22:54.503Z,59.62
2023-04-11T02:23:54.511Z,62.68
2023-04-11T02:24:54.683Z,60.26
2023-04-11T02:25:54.653Z,54.14
2023-04-11T02:26:54.636Z,55.59
2023-04-11T02:27:54.563Z,51.08
2023-04-11T02:28:54.919Z,59.78
2023-04-11T02:29:54.546Z,59.30
2023-04-11T02:30:54.961Z,58.17
2023-04-11T02:31:54.603Z,56.88
2023-04-11T02:32:54.614Z,56.88
2023-04-11T02:33:54.539Z,60.75
2023-04-11T02:34:54.546Z,59.62
2023-04-11T02:35:54.543Z,60.26
2023-04-11T02:36:54.405Z,61.23
2023-04-11T02:37:54.407Z,62.68
2023-04-11T02:38:54.716Z,58.33
2023-04-11T02:39:54.431Z,61.55
2023-04-11T02:40:54.373Z,62.36
2023-04-11T02:41:54.330Z,66.23
2023-04-11T02:42:54.349Z,63.81
2023-04-11T02:43:54.387Z,64.45
2023-04-11T02:44:54.430Z,62.04
2023-04-11T02:46:05.500Z,59.46
2023-04-11T02:46:56.336Z,51.24
2023-04-11T02:47:54.813Z,59.78
2023-04-11T02:48:54.709Z,61.39
2023-04-11T02:49:54.535Z,59.62
2023-04-11T02:50:54.422Z,59.30
2023-04-11T02:51:54.480Z,62.20
2023-04-11T02:52:54.353Z,63.49
2023-04-11T02:54:05.362Z,62.68
2023-04-11T02:54:55.266Z,63.16
2023-04-11T02:55:55.794Z,63.81
2023-04-11T02:56:54.359Z,61.55
2023-04-11T02:57:54.356Z,56.88
2023-04-11T02:58:54.410Z,58.49
2023-04-11T02:59:55.261Z,62.84
2023-04-11T03:00:54.249Z,63.16
2023-04-11T03:01:54.466Z,60.75
2023-04-11T03:02:54.319Z,58.97
2023-04-11T03:03:54.406Z,60.75
2023-04-11T03:04:54.286Z,62.52
2023-04-11T03:05:54.316Z,58.97
2023-04-11T03:06:54.392Z,61.23
2023-04-11T03:07:55.321Z,61.23
2023-04-11T03:08:54.567Z,63.16
2023-04-11T03:09:54.283Z,64.29
2023-04-11T03:10:54.307Z,63.97
2023-04-11T03:11:54.595Z,63.00
2023-04-11T03:12:54.370Z,58.97
2023-04-11T03:13:54.159Z,58.33
2023-04-11T03:14:54.121Z,62.68
2023-04-11T03:15:54.141Z,64.45
2023-04-11T03:16:54.304Z,61.71
2023-04-11T03:17:54.630Z,62.04
2023-04-11T03:18:54.487Z,63.97
2023-04-11T03:19:54.206Z,63.49
2023-04-11T03:20:54.151Z,67.51
2023-04-11T03:21:54.160Z,59.14
2023-04-11T03:22:54.193Z,61.23
2023-04-11T03:23:54.174Z,61.07
2023-04-11T03:24:54.183Z,60.91
2023-04-11T03:25:54.152Z,63.33
2023-04-11T03:26:54.210Z,59.30
2023-04-11T03:27:54.157Z,60.42
2023-04-11T03:28:54.705Z,64.29
2023-04-11T03:29:54.152Z,61.39
2023-04-11T03:30:54.213Z,60.91
2023-04-11T03:31:55.919Z,62.52
2023-04-11T03:32:54.034Z,61.07
2023-04-11T03:33:54.258Z,62.04
2023-04-11T03:34:54.022Z,61.23
2023-04-11T03:35:54.014Z,62.04
2023-04-11T03:36:53.991Z,63.65
2023-04-11T03:37:54.030Z,61.87
2023-04-11T03:38:54.331Z,62.20
2023-04-11T03:39:54.165Z,61.55
2023-04-11T03:40:54.042Z,61.23
2023-04-11T03:41:54.018Z,62.20
2023-04-11T03:42:54.373Z,61.71
2023-04-11T03:43:54.024Z,59.14
2023-04-11T03:44:54.066Z,60.42
2023-04-11T03:45:54.097Z,60.26
2023-04-11T03:46:53.997Z,60.91
2023-04-11T03:47:54.030Z,64.29
2023-04-11T03:48:54.266Z,61.71
2023-04-11T03:49:53.999Z,61.55
2023-04-11T03:50:54.112Z,64.45
2023-04-11T03:51:54.002Z,62.84
2023-04-11T03:52:54.064Z,62.20
2023-04-11T03:53:53.872Z,63.49
2023-04-11T03:54:53.886Z,65.10
2023-04-11T03:55:53.967Z,65.10
2023-04-11T03:56:53.849Z,65.26
2023-04-11T03:57:53.900Z,65.42
2023-04-11T03:58:54.145Z,63.16
2023-04-11T03:59:53.923Z,62.52
2023-04-11T04:00:53.981Z,63.49
2023-04-11T04:01:54.344Z,64.78
2023-04-11T04:02:54.032Z,64.45
2023-04-11T04:03:54.257Z,62.84
2023-04-11T04:04:53.911Z,62.04
2023-04-11T04:05:53.869Z,62.36
2023-04-11T04:06:54.222Z,62.36
2023-04-11T04:07:55.766Z,62.52
2023-04-11T04:08:54.867Z,62.68
2023-04-11T04:09:53.852Z,60.91
2023-04-11T04:10:53.773Z,63.97
2023-04-11T04:11:53.710Z,62.84
2023-04-11T04:12:53.765Z,62.36
2023-04-11T04:13:53.929Z,63.00
2023-04-11T04:14:53.753Z,63.16
2023-04-11T04:15:53.728Z,66.06
2023-04-11T04:16:53.726Z,62.04
2023-04-11T04:17:53.788Z,65.26
2023-04-11T04:18:53.736Z,67.68
2023-04-11T04:19:53.900Z,69.45
2023-04-11T04:20:53.785Z,69.77
2023-04-11T04:21:53.854Z,75.25
2023-04-11T04:22:53.866Z,70.09
2023-04-11T04:23:54.634Z,70.09
2023-04-11T04:24:53.788Z,73.80
2023-04-11T04:25:53.745Z,69.29
2023-04-11T04:26:53.856Z,73.48
2023-04-11T04:27:53.766Z,83.31
2023-04-11T04:28:53.814Z,71.70
2023-04-11T04:29:58.077Z,71.38
2023-04-11T04:30:54.744Z,70.42
2023-04-11T04:31:53.770Z,70.58
2023-04-11T04:32:53.753Z,71.87
2023-04-11T04:33:53.878Z,69.77
2023-04-11T04:34:53.938Z,69.61
2023-04-11T04:35:53.597Z,68.48
2023-04-11T04:36:53.555Z,70.25
2023-04-11T04:37:53.602Z,69.29
2023-04-11T04:38:53.733Z,69.13
2023-04-11T04:39:53.734Z,68.80
2023-04-11T04:40:54.017Z,69.61
2023-04-11T04:41:53.648Z,70.90
2023-04-11T04:42:53.699Z,71.22
2023-04-11T04:43:53.743Z,71.70
2023-04-11T04:44:53.768Z,66.71
2023-04-11T04:45:53.692Z,66.06
2023-04-11T04:46:53.688Z,69.77
2023-04-11T04:47:53.695Z,68.64
2023-04-11T04:48:53.591Z,68.64
2023-04-11T04:49:53.627Z,70.09
2023-04-11T04:50:53.584Z,69.29
2023-04-11T04:51:53.549Z,70.25
2023-04-11T04:52:53.631Z,68.16
2023-04-11T04:53:53.680Z,70.09
2023-04-11T04:54:53.472Z,70.09
2023-04-11T04:55:53.511Z,65.42
2023-04-11T04:56:53.474Z,67.19
2023-04-11T04:57:53.456Z,72.19
2023-04-11T04:58:53.627Z,68.00
2023-04-11T04:59:53.538Z,67.68
2023-04-11T05:00:53.540Z,67.35
2023-04-11T05:01:53.926Z,66.39
2023-04-11T05:02:53.568Z,66.55
2023-04-11T05:03:54.254Z,65.26
2023-04-11T05:04:53.476Z,66.71
2023-04-11T05:05:53.537Z,65.90
2023-04-11T05:06:53.536Z,73.96
2023-04-11T05:07:53.551Z,70.74
2023-04-11T05:08:53.451Z,71.06
2023-04-11T05:09:53.536Z,67.68
2023-04-11T05:10:53.455Z,66.87
2023-04-11T05:11:53.302Z,64.94
2023-04-11T05:12:53.387Z,69.61
2023-04-11T05:14:30.699Z,65.58
2023-04-11T05:14:54.420Z,70.58
2023-04-11T05:15:53.317Z,71.06
2023-04-11T05:16:53.372Z,69.77
2023-04-11T05:17:53.393Z,68.48
2023-04-11T05:18:53.258Z,64.94
2023-04-11T05:19:53.697Z,65.42
2023-04-11T05:20:53.372Z,65.58
2023-04-11T05:21:53.412Z,66.71
2023-04-11T05:22:53.351Z,70.09
2023-04-11T05:23:53.493Z,69.77
2023-04-11T05:24:54.103Z,69.61
2023-04-11T05:25:53.346Z,69.77
2023-04-11T05:26:54.480Z,68.80
2023-04-11T05:27:53.312Z,68.16
2023-04-11T05:28:53.445Z,67.84
2023-04-11T05:29:53.353Z,63.16
2023-04-11T05:30:53.768Z,64.78
2023-04-11T05:31:53.235Z,64.78
2023-04-11T05:32:53.176Z,64.29
2023-04-11T05:33:53.214Z,66.23
2023-04-11T05:34:54.232Z,64.29
2023-04-11T05:35:53.200Z,66.39
2023-04-11T05:36:53.216Z,66.71
2023-04-11T05:37:53.290Z,72.35
2023-04-11T05:38:53.257Z,63.00
2023-04-11T05:39:53.286Z,66.55
2023-04-11T05:40:53.269Z,64.45
2023-04-11T05:41:53.228Z,64.78
2023-04-11T05:42:53.237Z,65.58
2023-04-11T05:43:53.666Z,66.71
2023-04-11T05:44:53.234Z,66.23
2023-04-11T05:45:53.254Z,66.71
2023-04-11T05:46:53.205Z,63.97
2023-04-11T05:47:53.320Z,63.81
2023-04-11T05:48:53.208Z,64.78
2023-04-11T05:49:53.062Z,68.16
2023-04-11T05:50:53.173Z,64.61
2023-04-11T05:51:53.136Z,65.42
2023-04-11T05:52:53.220Z,78.63
2023-04-11T05:53:53.110Z,80.41
2023-04-11T05:54:53.062Z,81.53
2023-04-11T05:55:53.065Z,67.35
2023-04-11T05:56:53.063Z,66.39
2023-04-11T05:57:53.141Z,66.06
2023-04-11T05:58:53.226Z,65.74
2023-04-11T05:59:53.130Z,65.58
2023-04-11T06:00:53.131Z,64.45
2023-04-11T06:01:53.590Z,63.16
2023-04-11T06:02:53.205Z,64.78
2023-04-11T06:03:53.320Z,63.65
2023-04-11T06:04:53.431Z,63.00
2023-04-11T06:05:53.041Z,65.42
2023-04-11T06:06:53.053Z,64.29
2023-04-11T06:07:53.071Z,65.58
2023-04-11T06:08:52.947Z,61.87
2023-04-11T06:09:53.158Z,65.26
2023-04-11T06:10:52.918Z,63.81
2023-04-11T06:11:52.973Z,60.75
2023-04-11T06:12:53.001Z,65.90
2023-04-11T06:13:52.953Z,69.77
2023-04-11T06:14:52.890Z,67.51
2023-04-11T06:15:53.114Z,67.19
2023-04-11T06:16:53.032Z,67.51
2023-04-11T06:17:53.196Z,68.00
2023-04-11T06:18:53.041Z,66.06
2023-04-11T06:19:53.034Z,68.96
2023-04-11T06:20:52.969Z,65.42
2023-04-11T06:22:08.557Z,64.94
2023-04-11T06:22:52.875Z,66.71
2023-04-11T06:23:52.983Z,65.74
2023-04-11T06:24:53.037Z,67.19
2023-04-11T06:25:53.109Z,65.26
2023-04-11T06:26:52.961Z,68.16
2023-04-11T06:27:52.896Z,65.74
2023-04-11T06:28:52.942Z,63.97
2023-04-11T06:29:52.907Z,65.74
2023-04-11T06:30:52.953Z,65.74
2023-04-11T06:31:52.878Z,67.19
2023-04-11T06:32:52.850Z,64.45
2023-04-11T06:33:52.783Z,74.12
2023-04-11T06:34:52.982Z,64.13
2023-04-11T06:35:52.805Z,66.23
2023-04-11T06:36:52.800Z,65.90
2023-04-11T06:37:52.777Z,67.19
2023-04-11T06:38:52.797Z,69.29
2023-04-11T06:39:52.995Z,66.87
2023-04-11T06:40:52.776Z,65.58
2023-04-11T06:41:52.840Z,66.06
2023-04-11T06:42:52.792Z,68.96
2023-04-11T06:43:52.874Z,67.35
2023-04-11T06:44:52.865Z,66.06
2023-04-11T06:45:52.927Z,67.03
2023-04-11T06:46:52.870Z,64.45
2023-04-11T06:47:52.876Z,65.10
2023-04-11T06:48:53.072Z,66.39
2023-04-11T06:49:52.823Z,70.09
2023-04-11T06:50:52.897Z,63.81
2023-04-11T06:51:52.658Z,66.39
2023-04-11T06:52:52.715Z,69.29
2023-04-11T06:53:52.738Z,67.68
2023-04-11T06:54:52.660Z,65.90
2023-04-11T06:55:52.603Z,65.58
2023-04-11T06:56:52.810Z,65.58
2023-04-11T06:57:52.778Z,75.09
2023-04-11T06:58:52.817Z,62.20
2023-04-11T06:59:52.734Z,63.81
2023-04-11T07:00:52.777Z,66.23
2023-04-11T07:01:53.076Z,65.74
2023-04-11T07:02:52.988Z,68.96
2023-04-11T07:03:52.887Z,65.90
2023-04-11T07:04:52.948Z,65.74
2023-04-11T07:05:52.585Z,64.45
2023-04-11T07:06:52.951Z,64.29
2023-04-11T07:07:52.958Z,68.00
2023-04-11T07:08:52.540Z,67.35
2023-04-11T07:09:52.524Z,67.19
2023-04-11T07:10:52.510Z,70.25
2023-04-11T07:11:52.546Z,66.39
2023-04-11T07:12:52.610Z,67.51
2023-04-11T07:13:52.492Z,66.39
2023-04-11T07:14:52.430Z,66.39
2023-04-11T07:15:52.489Z,64.78
2023-04-11T07:16:52.765Z,68.80
2023-04-11T07:17:53.060Z,66.23
2023-04-11T07:18:53.553Z,67.68
2023-04-11T07:19:52.704Z,65.42
2023-04-11T07:20:52.757Z,70.09
2023-04-11T07:21:52.629Z,72.83
2023-04-11T07:22:52.473Z,66.39
2023-04-11T07:23:52.995Z,68.48
2023-04-11T07:24:52.555Z,66.06
2023-04-11T07:25:52.621Z,67.03
2023-04-11T07:26:52.525Z,66.71
2023-04-11T07:27:52.469Z,65.10
2023-04-11T07:28:52.502Z,66.55
2023-04-11T07:29:52.590Z,68.48
2023-04-11T07:30:52.428Z,68.48
2023-04-11T07:31:52.589Z,69.77
2023-04-11T07:32:52.476Z,69.45
2023-04-11T07:33:52.472Z,68.96
2023-04-11T07:34:52.785Z,68.16
2023-04-11T07:35:52.303Z,67.84
2023-04-11T07:36:52.385Z,66.39
2023-04-11T07:37:52.397Z,68.32
2023-04-11T07:38:52.287Z,67.03
2023-04-11T07:39:53.414Z,65.42
2023-04-11T07:40:52.399Z,66.06
2023-04-11T07:41:52.488Z,65.26
2023-04-11T07:42:52.460Z,66.23
2023-04-11T07:43:52.384Z,67.84
2023-04-11T07:44:52.752Z,72.35
2023-04-11T07:45:52.443Z,68.16
2023-04-11T07:46:52.465Z,67.51
2023-04-11T07:47:52.730Z,69.13
2023-04-11T07:48:52.386Z,69.13
2023-04-11T07:49:52.371Z,69.45
2023-04-11T07:50:52.638Z,67.35
2023-04-11T07:51:52.465Z,71.87
2023-04-11T07:52:52.294Z,67.51
2023-04-11T07:53:52.434Z,66.06
2023-04-11T07:54:52.273Z,71.87
2023-04-11T07:55:52.323Z,69.61
2023-04-11T07:56:52.107Z,66.71
2023-04-11T07:57:52.210Z,67.51
2023-04-11T07:58:52.190Z,68.32
2023-04-11T07:59:52.214Z,68.16
2023-04-11T08:00:52.263Z,68.64
2023-04-11T08:01:52.364Z,66.39
2023-04-11T08:02:53.468Z,67.03
2023-04-11T08:03:52.594Z,66.71
2023-04-11T08:04:52.647Z,67.19
2023-04-11T08:05:52.352Z,67.19
2023-04-11T08:06:52.721Z,66.23
2023-04-11T08:07:52.335Z,67.68
2023-04-11T08:08:52.229Z,65.90
2023-04-11T08:09:52.183Z,67.03
2023-04-11T08:10:52.450Z,67.51
2023-04-11T08:11:53.300Z,66.39
2023-04-11T08:15:50.706Z,69.29
2023-04-11T08:16:52.829Z,67.68
2023-04-11T08:17:51.715Z,66.71
2023-04-11T08:18:50.510Z,65.10
2023-04-11T08:19:50.679Z,67.03
2023-04-11T08:20:50.621Z,69.61
2023-04-11T08:21:50.568Z,68.00
2023-04-11T08:22:50.742Z,67.68
2023-04-11T08:23:53.043Z,65.58
2023-04-11T08:24:50.518Z,66.39
2023-04-11T08:25:50.712Z,66.39
2023-04-11T08:26:50.794Z,67.03
2023-04-11T08:27:51.064Z,67.68
2023-04-11T08:28:51.137Z,67.51
2023-04-11T08:29:50.482Z,66.06
2023-04-11T08:30:50.948Z,63.49
2023-04-11T08:31:50.747Z,64.94
2023-04-11T08:32:50.368Z,66.06
2023-04-11T08:33:50.419Z,67.35
2023-04-11T08:34:50.421Z,68.96
2023-04-11T08:35:50.434Z,66.87
2023-04-11T08:36:50.364Z,68.00
2023-04-11T08:37:50.777Z,64.94
2023-04-11T08:38:50.870Z,65.90
2023-04-11T08:39:50.468Z,68.00
2023-04-11T08:40:50.522Z,67.35
2023-04-11T08:41:50.667Z,67.51
2023-04-11T08:42:50.482Z,63.81
2023-04-11T08:43:50.365Z,65.90
2023-04-11T08:44:50.469Z,66.55
2023-04-11T08:45:50.504Z,65.74
2023-04-11T08:46:50.464Z,65.58
2023-04-11T08:47:50.696Z,66.55
2023-04-11T08:48:50.787Z,67.03
2023-04-11T08:49:50.302Z,64.94
2023-04-11T08:50:50.240Z,66.71
2023-04-11T08:51:50.311Z,66.71
2023-04-11T08:52:50.270Z,69.13
2023-04-11T08:53:50.192Z,80.73
2023-04-11T08:54:50.274Z,68.32
2023-04-11T08:55:50.310Z,67.03
2023-04-11T08:56:50.273Z,65.26
2023-04-11T08:57:50.408Z,76.05
2023-04-11T08:58:50.520Z,69.29
2023-04-11T08:59:50.582Z,68.32
2023-04-11T09:00:50.593Z,69.77
2023-04-11T09:01:50.544Z,66.55
2023-04-11T09:02:50.760Z,68.00
2023-04-11T09:03:50.362Z,66.06
2023-04-11T09:04:50.537Z,63.65
2023-04-11T09:05:50.339Z,64.61
2023-04-11T09:06:50.273Z,63.81
2023-04-11T09:07:50.397Z,63.16
2023-04-11T09:08:50.405Z,66.23
2023-04-11T09:09:50.205Z,68.96
2023-04-11T09:10:50.663Z,68.64
2023-04-11T09:11:50.325Z,65.10
2023-04-11T09:12:50.262Z,68.16
2023-04-11T09:13:50.330Z,65.58
2023-04-11T09:14:50.260Z,64.94
2023-04-11T09:15:50.311Z,69.61
2023-04-11T09:16:51.063Z,66.39
2023-04-11T09:17:50.296Z,66.06
2023-04-11T09:18:50.245Z,67.03
2023-04-11T09:19:50.598Z,78.96
2023-04-11T09:20:50.267Z,68.64
2023-04-11T09:21:50.928Z,66.55
2023-04-11T09:22:50.198Z,69.77
2023-04-11T09:23:50.287Z,75.57
2023-04-11T09:24:50.469Z,79.60
2023-04-11T09:25:50.406Z,67.03
2023-04-11T09:26:50.136Z,66.71
2023-04-11T09:27:50.321Z,67.19
2023-04-11T09:28:50.301Z,74.60
2023-04-11T09:29:51.233Z,67.51
2023-04-11T09:30:50.201Z,73.80
2023-04-11T09:31:50.137Z,68.16
2023-04-11T09:32:50.429Z,68.64
2023-04-11T09:33:50.142Z,65.58
2023-04-11T09:35:04.153Z,65.10
2023-04-11T09:35:50.961Z,66.23
2023-04-11T09:36:50.491Z,64.94
2023-04-11T09:37:50.513Z,65.74
2023-04-11T09:38:50.056Z,63.33
2023-04-11T09:39:49.865Z,65.42
2023-04-11T09:40:49.907Z,63.16
2023-04-11T09:41:50.064Z,64.78
2023-04-11T09:42:49.914Z,61.87
2023-04-11T09:43:50.192Z,65.42
2023-04-11T09:44:50.017Z,64.94
2023-04-11T09:45:54.597Z,64.78
2023-04-11T09:46:51.798Z,64.94
2023-04-11T09:48:05.859Z,65.58
2023-04-11T09:48:49.979Z,68.64
2023-04-11T09:49:49.877Z,68.64
2023-04-11T09:50:49.944Z,65.90
2023-04-11T09:51:50.131Z,66.71
2023-04-11T09:52:50.074Z,67.19
2023-04-11T09:53:49.962Z,69.61
2023-04-11T09:54:50.192Z,64.13
2023-04-11T09:55:49.807Z,68.96
2023-04-11T09:56:49.972Z,67.03
2023-04-11T09:57:49.881Z,66.55
2023-04-11T09:58:50.153Z,68.16
2023-04-11T09:59:50.090Z,66.71
2023-04-11T10:00:49.967Z,67.68
2023-04-11T10:01:49.801Z,68.64
2023-04-11T10:02:50.091Z,67.68
2023-04-11T10:03:49.751Z,66.87
2023-04-11T10:04:50.832Z,66.55
2023-04-11T10:05:50.424Z,63.16
2023-04-11T10:06:51.161Z,63.00
2023-04-11T10:07:50.138Z,65.90
2023-04-11T10:08:49.688Z,64.13
2023-04-11T10:09:49.778Z,68.80
2023-04-11T10:10:49.940Z,64.94
2023-04-11T10:11:49.948Z,76.70
2023-04-11T10:12:50.253Z,75.57
2023-04-11T10:13:50.235Z,65.90
2023-04-11T10:14:50.292Z,67.84
2023-04-11T10:15:49.964Z,63.81
2023-04-11T10:16:50.308Z,73.80
2023-04-11T10:17:50.345Z,68.80
2023-04-11T10:18:50.022Z,68.16
2023-04-11T10:19:50.422Z,68.48
2023-04-11T10:20:50.284Z,70.74
2023-04-11T10:21:49.913Z,79.44
2023-04-11T10:22:50.108Z,71.87
2023-04-11T10:23:50.196Z,65.90
2023-04-11T10:24:51.276Z,67.03
2023-04-11T10:25:49.739Z,66.39
2023-04-11T10:26:50.231Z,78.47
2023-04-11T10:27:57.806Z,82.02
2023-04-11T10:28:49.766Z,66.39
2023-04-11T10:29:51.361Z,64.94
2023-04-11T10:30:51.215Z,67.19
2023-04-11T10:31:50.185Z,63.97
2023-04-11T10:32:50.395Z,64.78
2023-04-11T10:33:49.921Z,64.78
2023-04-11T10:34:50.102Z,76.86
2023-04-11T10:35:50.137Z,66.55
2023-04-11T10:36:49.690Z,66.55
2023-04-11T10:37:49.945Z,67.68
2023-04-11T10:38:50.078Z,66.39
2023-04-11T10:39:49.908Z,67.51
2023-04-11T10:40:49.559Z,64.61
2023-04-11T10:41:49.741Z,72.83
2023-04-11T10:42:49.603Z,66.55
2023-04-11T10:43:49.660Z,68.16
2023-04-11T10:44:49.615Z,68.64
2023-04-11T10:45:49.411Z,69.29
2023-04-11T10:46:50.039Z,67.51
2023-04-11T10:47:49.694Z,76.22
2023-04-11T10:48:49.722Z,71.54
2023-04-11T10:49:49.721Z,70.09
2023-04-11T10:50:49.720Z,69.61
2023-04-11T10:51:50.009Z,68.16
2023-04-11T10:52:49.430Z,71.22
2023-04-11T10:53:49.569Z,68.80
2023-04-11T10:54:49.454Z,68.16
2023-04-11T10:55:49.464Z,68.80
2023-04-11T10:56:49.407Z,65.42
2023-04-11T10:57:49.400Z,67.84
2023-04-11T10:58:49.495Z,68.80
2023-04-11T10:59:49.497Z,69.29
2023-04-11T11:00:49.429Z,67.35
2023-04-11T11:01:52.617Z,68.64
2023-04-11T11:02:50.538Z,71.22
2023-04-11T11:03:49.410Z,67.19
2023-04-11T11:04:49.489Z,69.13
2023-04-11T11:05:49.549Z,68.00
2023-04-11T11:06:56.704Z,66.39
2023-04-11T11:07:51.650Z,68.16
2023-04-11T11:08:49.378Z,66.39
2023-04-11T11:09:49.829Z,68.32
2023-04-11T11:10:49.579Z,64.45
2023-04-11T11:11:49.544Z,66.55
2023-04-11T11:12:49.325Z,66.23
2023-04-11T11:13:49.793Z,74.44
2023-04-11T11:14:49.280Z,67.84
2023-04-11T11:15:49.163Z,66.23
2023-04-11T11:16:49.910Z,66.23
2023-04-11T11:17:49.569Z,67.84
2023-04-11T11:18:49.456Z,72.35
2023-04-11T11:19:49.609Z,67.35
2023-04-11T11:20:49.169Z,65.74
2023-04-11T11:21:49.341Z,65.10
2023-04-11T11:22:49.376Z,70.58
2023-04-11T11:23:49.218Z,67.03
2023-04-11T11:24:49.422Z,83.47
2023-04-11T11:25:49.484Z,68.16
2023-04-11T11:26:49.602Z,64.61
2023-04-11T11:27:49.437Z,64.78
2023-04-11T11:28:49.589Z,66.39
2023-04-11T11:29:50.162Z,75.89
2023-04-11T11:30:49.354Z,65.90
2023-04-11T11:31:49.284Z,65.26
2023-04-11T11:32:49.266Z,69.13
2023-04-11T11:33:49.293Z,74.93
2023-04-11T11:34:49.290Z,63.81
2023-04-11T11:35:49.225Z,65.74
2023-04-11T11:36:49.297Z,65.90
2023-04-11T11:37:49.208Z,71.22
2023-04-11T11:38:49.285Z,80.57
2023-04-11T11:39:49.137Z,72.67
2023-04-11T11:40:48.992Z,64.78
2023-04-11T11:41:48.970Z,78.47
2023-04-11T11:42:48.994Z,65.10
2023-04-11T11:43:48.993Z,76.38
2023-04-11T11:44:49.353Z,64.45
2023-04-11T11:45:49.166Z,77.83
2023-04-11T11:46:48.995Z,74.12
2023-04-11T11:47:48.977Z,67.68
2023-04-11T11:48:50.044Z,77.34
2023-04-11T11:49:49.228Z,67.84
2023-04-11T11:50:49.051Z,80.08
2023-04-11T11:51:49.078Z,68.80
2023-04-11T11:52:49.328Z,79.92
2023-04-11T11:53:49.278Z,71.87
2023-04-11T11:54:49.039Z,69.93
2023-04-11T11:55:49.256Z,75.25
2023-04-11T11:56:49.016Z,72.35
2023-04-11T11:57:49.137Z,71.38
2023-04-11T11:58:48.990Z,68.96
2023-04-11T11:59:49.023Z,70.09
2023-04-11T12:00:49.144Z,66.06
2023-04-11T12:01:48.917Z,67.03
2023-04-11T12:02:48.993Z,63.33
2023-04-11T12:03:49.030Z,74.28
2023-04-11T12:04:49.081Z,82.18
2023-04-11T12:05:48.818Z,72.67
2023-04-11T12:06:48.854Z,66.87
2023-04-11T12:07:48.956Z,79.92
2023-04-11T12:08:49.036Z,83.79
2023-04-11T12:09:49.525Z,65.74
2023-04-11T12:10:48.853Z,78.79
2023-04-11T12:11:48.900Z,70.25
2023-04-11T12:12:53.222Z,64.45
2023-04-11T12:13:49.923Z,78.79
2023-04-11T12:14:48.992Z,69.93
2023-04-11T12:15:49.067Z,64.61
2023-04-11T12:16:49.041Z,62.20
2023-04-11T12:17:48.866Z,69.77
2023-04-11T12:18:48.944Z,67.19
2023-04-11T12:19:49.048Z,72.67
2023-04-11T12:20:49.344Z,67.19
2023-04-11T12:21:50.225Z,68.64
2023-04-11T12:22:53.686Z,67.51
2023-04-11T12:23:49.159Z,65.58
2023-04-11T12:24:48.789Z,65.10
2023-04-11T12:25:48.832Z,66.06
2023-04-11T12:27:05.779Z,64.13
2023-04-11T12:27:51.254Z,65.42
2023-04-11T12:28:49.027Z,64.45
2023-04-11T12:29:48.805Z,63.16
2023-04-11T12:30:48.992Z,66.23
2023-04-11T12:31:49.153Z,66.39
2023-04-11T12:32:49.191Z,66.06
2023-04-11T12:33:50.708Z,65.42
2023-04-11T12:34:49.176Z,64.45
2023-04-11T12:35:48.995Z,66.23
2023-04-11T12:36:49.107Z,67.19
2023-04-11T12:37:48.695Z,64.13
2023-04-11T12:38:48.832Z,66.87
2023-04-11T12:39:48.864Z,63.97
2023-04-11T12:40:48.967Z,64.13
2023-04-11T12:41:48.892Z,65.58
2023-04-11T12:42:56.718Z,64.13
2023-04-11T12:43:50.931Z,63.49
2023-04-11T12:44:48.584Z,62.36
2023-04-11T12:45:48.753Z,64.29
2023-04-11T12:46:49.250Z,63.81
2023-04-11T12:47:49.035Z,65.42
2023-04-11T12:48:49.003Z,63.49
2023-04-11T12:49:49.603Z,65.26
2023-04-11T12:50:48.880Z,68.16
2023-04-11T12:51:48.989Z,67.35
2023-04-11T12:52:48.804Z,64.13
2023-04-11T12:53:48.978Z,67.51
2023-04-11T12:54:48.626Z,64.94
2023-04-11T12:55:48.983Z,65.58